Time;durP1;ratioP1;P1;durP2;ratioP2;P2;SDS_P1;SDS_P2;PMS_P1;PMS_P2;Temp;Humidity;BMP_temperature;BMP_pressure;BME280_temperature;BME280_humidity;BME280_pressure;Samples;Min_cycle;Max_cycle;Signal;HPM_P1;HPM_P2
2021/03/15 15:02:49;;;;;;;48.83;24.42;;;;;;;;;;5064504;27;20494;-48
2021/03/15 15:05:15;;;;;;;36.55;20.33;;;;;;;;;;5065780;28;20032;-58
2021/03/15 15:09:23;;;;;;;36.55;20.48;;;;;;;;;;5054232;27;20509;-45
2021/03/15 15:11:49;;;;;;;38.55;19.92;;;;;;;;;;5040754;28;20857;-46
2021/03/15 15:14:15;;;;;;;33.83;18.35;;;;;;;;;;5040544;28;20120;-46
2021/03/15 15:16:41;;;;;;;29.08;17.48;;;;;;;;;;5040481;28;20052;-45
2021/03/15 15:19:08;;;;;;;37.30;22.75;;;;;;;;;;5040006;28;20113;-45
2021/03/15 15:21:34;;;;;;;35.72;19.13;;;;;;;;;;5040259;28;20025;-45
2021/03/15 15:24:00;;;;;;;61.65;32.38;;;;;;;;;;5040253;28;20032;-45
2021/03/15 15:26:26;;;;;;;43.30;26.52;;;;;;;;;;5040200;28;20930;-44
2021/03/15 15:28:52;;;;;;;37.53;23.17;;;;;;;;;;5040181;28;20040;-47
2021/03/15 15:31:18;;;;;;;37.50;21.00;;;;;;;;;;5039655;28;20024;-45
2021/03/15 15:33:45;;;;;;;45.50;24.85;;;;;;;;;;5039529;28;20107;-44
2021/03/15 15:36:11;;;;;;;28.88;17.35;;;;;;;;;;5040113;28;20083;-45
2021/03/15 15:38:37;;;;;;;41.60;20.95;;;;;;;;;;5039912;28;20586;-46
2021/03/15 15:41:03;;;;;;;63.78;34.80;;;;;;;;;;5020506;28;20033;-47
2021/03/15 15:43:29;;;;;;;33.47;17.48;;;;;;;;;;5039529;28;20457;-45
2021/03/15 15:45:55;;;;;;;30.75;18.67;;;;;;;;;;5039784;28;20025;-46
2021/03/15 15:48:21;;;;;;;24.00;15.15;;;;;;;;;;5039704;28;20152;-48
2021/03/15 15:50:47;;;;;;;28.55;16.00;;;;;;;;;;5039466;28;20021;-47
2021/03/15 15:53:13;;;;;;;24.95;16.80;;;;;;;;;;5039922;28;20444;-44
2021/03/15 15:55:42;;;;;;;23.58;15.45;;;;;;;;;;5039935;28;20104;-46
2021/03/15 15:58:10;;;;;;;25.48;16.13;;;;;;;;;;5039378;28;20035;-46
2021/03/15 16:00:36;;;;;;;83.38;47.63;;;;;;;;;;5039922;28;20036;-48
2021/03/15 16:03:04;;;;;;;39.45;24.50;;;;;;;;;;5039353;28;20029;-48
2021/03/15 16:05:32;;;;;;;49.15;25.17;;;;;;;;;;5038918;28;20071;-46
2021/03/15 16:07:58;;;;;;;38.65;21.02;;;;;;;;;;5039164;28;20561;-49
2021/03/15 16:10:27;;;;;;;52.83;30.00;;;;;;;;;;5039604;28;20445;-49
2021/03/15 16:12:53;;;;;;;42.72;26.00;;;;;;;;;;5039216;28;20047;-48
2021/03/15 16:15:19;;;;;;;39.85;23.13;;;;;;;;;;5039630;28;20036;-47
2021/03/15 16:17:45;;;;;;;30.02;17.85;;;;;;;;;;5039047;28;20025;-46
2021/03/15 16:20:12;;;;;;;27.92;17.15;;;;;;;;;;5028842;28;20031;-47
2021/03/15 16:22:38;;;;;;;31.08;18.05;;;;;;;;;;5026055;28;20962;-48
2021/03/15 16:25:06;;;;;;;36.10;20.67;;;;;;;;;;5025438;28;20169;-47
2021/03/15 16:27:33;;;;;;;33.92;18.63;;;;;;;;;;5025698;28;20037;-48
2021/03/15 16:29:59;;;;;;;33.30;16.80;;;;;;;;;;5025863;28;20087;-51
2021/03/15 16:32:25;;;;;;;30.88;17.08;;;;;;;;;;5025811;28;20033;-51
2021/03/15 16:34:51;;;;;;;26.63;15.45;;;;;;;;;;5025537;28;20101;-49
2021/03/15 16:37:20;;;;;;;35.95;15.70;;;;;;;;;;5026015;28;20029;-45
2021/03/15 16:39:46;;;;;;;21.05;13.10;;;;;;;;;;5025658;28;20017;-48
2021/03/15 16:42:13;;;;;;;24.58;14.50;;;;;;;;;;5026078;28;21014;-50
2021/03/15 16:44:39;;;;;;;23.88;13.95;;;;;;;;;;5006434;28;20297;-45
2021/03/15 16:47:06;;;;;;;22.52;13.05;;;;;;;;;;5025685;28;20033;-47
2021/03/15 16:49:32;;;;;;;22.70;12.95;;;;;;;;;;5025208;28;20021;-50
2021/03/15 16:51:58;;;;;;;22.13;12.25;;;;;;;;;;5025235;28;20022;-45
2021/03/15 16:54:24;;;;;;;17.77;11.10;;;;;;;;;;5025312;28;20029;-50
2021/03/15 16:56:50;;;;;;;21.77;11.35;;;;;;;;;;5025179;28;20052;-45
2021/03/15 16:59:19;;;;;;;19.98;10.73;;;;;;;;;;5025281;28;20021;-52
2021/03/15 17:01:45;;;;;;;20.30;10.85;;;;;;;;;;5025221;28;20017;-46
2021/03/15 17:04:11;;;;;;;18.77;12.48;;;;;;;;;;5025246;28;21069;-51
2021/03/15 17:06:37;;;;;;;17.30;11.95;;;;;;;;;;5024988;28;20035;-47
2021/03/15 17:09:03;;;;;;;25.77;16.42;;;;;;;;;;5024404;28;20076;-42
2021/03/15 17:11:29;;;;;;;25.73;18.42;;;;;;;;;;5024885;28;20061;-49
2021/03/15 17:13:55;;;;;;;24.02;17.58;;;;;;;;;;5024243;28;20029;-48
2021/03/15 17:16:21;;;;;;;24.77;18.30;;;;;;;;;;5025142;28;20102;-51
2021/03/15 17:18:47;;;;;;;33.55;26.70;;;;;;;;;;5024804;28;20028;-48
2021/03/15 17:21:16;;;;;;;30.77;22.45;;;;;;;;;;5024489;28;20025;-51
2021/03/15 17:23:42;;;;;;;22.83;18.38;;;;;;;;;;5025137;28;20091;-46
2021/03/15 17:26:08;;;;;;;23.27;19.88;;;;;;;;;;5025234;28;20025;-49
2021/03/15 17:28:34;;;;;;;23.75;19.25;;;;;;;;;;5024928;28;20130;-45
2021/03/15 17:31:02;;;;;;;82.75;75.13;;;;;;;;;;5023864;28;20132;-51
2021/03/15 17:33:28;;;;;;;28.95;24.00;;;;;;;;;;5024099;28;20037;-49
2021/03/15 17:35:55;;;;;;;26.10;19.00;;;;;;;;;;5007662;28;20033;-46
2021/03/15 17:38:21;;;;;;;30.42;23.83;;;;;;;;;;5024581;28;20064;-44
2021/03/15 17:40:47;;;;;;;30.38;20.08;;;;;;;;;;5024460;28;20024;-47
2021/03/15 17:43:13;;;;;;;37.67;30.92;;;;;;;;;;5024340;28;20029;-47
2021/03/15 17:45:39;;;;;;;36.45;30.42;;;;;;;;;;5024243;28;20017;-44
2021/03/15 17:48:05;;;;;;;43.08;35.72;;;;;;;;;;5024007;28;20173;-47
2021/03/15 17:50:31;;;;;;;38.30;29.58;;;;;;;;;;5024631;28;20566;-48
2021/03/15 17:52:57;;;;;;;21.13;12.90;;;;;;;;;;5024495;28;20052;-46
2021/03/15 17:55:23;;;;;;;24.85;14.07;;;;;;;;;;5024661;28;20025;-47
2021/03/15 17:57:51;;;;;;;53.22;24.80;;;;;;;;;;5023941;28;20024;-50
2021/03/15 18:00:17;;;;;;;37.35;19.08;;;;;;;;;;5024501;28;20107;-46
2021/03/15 18:02:43;;;;;;;34.33;16.38;;;;;;;;;;5024456;28;20114;-49
2021/03/15 18:05:09;;;;;;;34.67;15.45;;;;;;;;;;5021415;28;20065;-49
2021/03/15 18:07:36;;;;;;;28.25;15.15;;;;;;;;;;5023568;28;20791;-47
2021/03/15 18:10:02;;;;;;;94.78;44.53;;;;;;;;;;5024332;28;20381;-49
2021/03/15 18:12:30;;;;;;;105.63;48.10;;;;;;;;;;5024278;28;20027;-45
2021/03/15 18:14:56;;;;;;;92.03;39.97;;;;;;;;;;5023801;28;20033;-48
2021/03/15 18:17:22;;;;;;;84.00;38.95;;;;;;;;;;5024049;28;20553;-46
2021/03/15 18:19:48;;;;;;;39.25;19.95;;;;;;;;;;5023382;28;20743;-44
2021/03/15 18:22:15;;;;;;;56.70;26.35;;;;;;;;;;5024072;28;20029;-47
2021/03/15 18:24:41;;;;;;;33.47;15.27;;;;;;;;;;5024181;28;20079;-48
2021/03/15 18:27:07;;;;;;;96.18;44.72;;;;;;;;;;5021576;28;20071;-47
2021/03/15 18:29:33;;;;;;;51.70;23.38;;;;;;;;;;5023163;28;20159;-44
2021/03/15 18:31:59;;;;;;;37.55;18.17;;;;;;;;;;5023929;28;20339;-43
2021/03/15 18:34:25;;;;;;;42.63;19.25;;;;;;;;;;5023745;28;20029;-44
2021/03/15 18:36:52;;;;;;;41.97;18.15;;;;;;;;;;5023908;28;20032;-44
2021/03/15 18:39:18;;;;;;;64.03;30.77;;;;;;;;;;5023739;28;20029;-44
2021/03/15 18:41:44;;;;;;;50.92;27.65;;;;;;;;;;5023067;28;20029;-48
2021/03/15 18:44:11;;;;;;;48.22;25.05;;;;;;;;;;5023003;28;20029;-46
2021/03/15 18:46:37;;;;;;;37.90;20.50;;;;;;;;;;5020010;28;20086;-44
2021/03/15 18:49:04;;;;;;;58.38;27.85;;;;;;;;;;5022588;28;20068;-46
2021/03/15 18:51:30;;;;;;;30.98;14.50;;;;;;;;;;5023389;28;20021;-45
2021/03/15 18:53:56;;;;;;;45.10;22.80;;;;;;;;;;5023296;28;21421;-48
2021/03/15 18:56:22;;;;;;;40.05;20.33;;;;;;;;;;5023569;28;20029;-46
2021/03/15 18:58:48;;;;;;;56.28;29.88;;;;;;;;;;5023068;28;20486;-44
2021/03/15 19:01:14;;;;;;;45.00;22.67;;;;;;;;;;5023220;28;20029;-44
2021/03/15 19:03:41;;;;;;;68.32;32.85;;;;;;;;;;5022801;28;20029;-48
2021/03/15 19:06:07;;;;;;;52.03;26.67;;;;;;;;;;5022767;28;20021;-44
2021/03/15 19:08:33;;;;;;;38.33;21.23;;;;;;;;;;5022986;28;20506;-45
2021/03/15 19:10:59;;;;;;;28.73;15.25;;;;;;;;;;5023032;28;20037;-44
2021/03/15 19:13:25;;;;;;;36.60;18.17;;;;;;;;;;5023150;28;20029;-45
2021/03/15 19:15:51;;;;;;;42.17;21.58;;;;;;;;;;5022796;28;20465;-48
2021/03/15 19:18:17;;;;;;;48.00;25.95;;;;;;;;;;5022907;28;20367;-47
2021/03/15 19:20:45;;;;;;;36.85;20.13;;;;;;;;;;5022838;28;20032;-47
2021/03/15 19:23:11;;;;;;;84.20;41.20;;;;;;;;;;5022240;28;20021;-47
2021/03/15 19:25:39;;;;;;;86.70;44.67;;;;;;;;;;5023026;28;20178;-46
2021/03/15 19:28:06;;;;;;;87.80;46.13;;;;;;;;;;5004053;28;20305;-47
2021/03/15 19:30:32;;;;;;;36.80;21.20;;;;;;;;;;5022475;28;20033;-45
2021/03/15 19:32:58;;;;;;;67.03;34.33;;;;;;;;;;5022883;28;20159;-47
2021/03/15 19:35:24;;;;;;;176.10;102.07;;;;;;;;;;5022773;28;20108;-50
2021/03/15 19:37:51;;;;;;;39.03;20.23;;;;;;;;;;5023040;28;20037;-52
2021/03/15 19:40:17;;;;;;;104.22;55.50;;;;;;;;;;5022794;28;20025;-52
2021/03/15 19:42:43;;;;;;;29.83;17.13;;;;;;;;;;5022876;28;20025;-48
2021/03/15 19:45:09;;;;;;;42.85;20.40;;;;;;;;;;5022688;28;20105;-47
2021/03/15 19:47:36;;;;;;;18.58;9.75;;;;;;;;;;5022161;28;20023;-46
2021/03/15 19:50:04;;;;;;;29.17;16.08;;;;;;;;;;5022682;28;20033;-46
2021/03/15 19:52:30;;;;;;;27.00;15.30;;;;;;;;;;5023256;28;20025;-47
2021/03/15 19:55:01;;;;;;;31.85;15.20;;;;;;;;;;5024583;28;20108;-50
2021/03/15 19:57:27;;;;;;;39.25;20.77;;;;;;;;;;5024177;28;20033;-45
2021/03/15 19:59:53;;;;;;;54.60;28.50;;;;;;;;;;5007069;28;20060;-46
2021/03/15 20:02:19;;;;;;;37.67;20.15;;;;;;;;;;5026446;28;20025;-47
2021/03/15 20:04:46;;;;;;;39.03;19.20;;;;;;;;;;5026369;28;20079;-48
2021/03/15 20:07:12;;;;;;;58.03;27.35;;;;;;;;;;5026075;28;20048;-47
2021/03/15 20:09:38;;;;;;;79.97;39.05;;;;;;;;;;5025923;28;20669;-49
2021/03/15 20:12:04;;;;;;;54.85;27.88;;;;;;;;;;5025964;28;20334;-49
2021/03/15 20:14:33;;;;;;;30.88;16.42;;;;;;;;;;5007392;28;20029;-46
2021/03/15 20:16:59;;;;;;;59.30;28.80;;;;;;;;;;5026037;28;20045;-47
2021/03/15 20:19:29;;;;;;;73.95;36.25;;;;;;;;;;5025762;28;20127;-49
2021/03/15 20:21:56;;;;;;;58.38;31.20;;;;;;;;;;5026031;28;20068;-47
2021/03/15 20:24:22;;;;;;;70.85;36.40;;;;;;;;;;5026100;28;20039;-50
2021/03/15 20:26:48;;;;;;;40.28;20.70;;;;;;;;;;5025614;28;20469;-48
2021/03/15 20:29:14;;;;;;;29.63;16.35;;;;;;;;;;5025005;28;20163;-45
2021/03/15 20:31:40;;;;;;;34.42;18.75;;;;;;;;;;5025428;28;20025;-48
2021/03/15 20:34:06;;;;;;;78.22;37.78;;;;;;;;;;5025556;28;20025;-47
2021/03/15 20:36:32;;;;;;;22.98;13.63;;;;;;;;;;5025593;28;20025;-49
2021/03/15 20:38:58;;;;;;;31.40;15.73;;;;;;;;;;5025563;28;20048;-48
2021/03/15 20:41:24;;;;;;;28.70;15.93;;;;;;;;;;5025316;28;20021;-47
2021/03/15 20:43:58;;;;;;;29.52;14.27;;;;;;;;;;5004749;28;20040;-47
2021/03/15 20:46:24;;;;;;;45.53;22.98;;;;;;;;;;5025326;28;20025;-48
2021/03/15 20:48:50;;;;;;;51.65;24.88;;;;;;;;;;5025149;28;20724;-47
2021/03/15 20:51:16;;;;;;;19.38;11.52;;;;;;;;;;5025252;28;20377;-48
2021/03/15 20:53:42;;;;;;;65.40;33.75;;;;;;;;;;5025563;28;20040;-50
2021/03/15 20:56:08;;;;;;;48.03;23.58;;;;;;;;;;5025117;28;20040;-48
2021/03/15 20:58:34;;;;;;;45.95;23.90;;;;;;;;;;5025076;28;20052;-53
2021/03/15 21:01:00;;;;;;;52.70;29.67;;;;;;;;;;5024862;28;20159;-53
2021/03/15 21:03:27;;;;;;;60.08;32.97;;;;;;;;;;5024915;28;20032;-49
2021/03/15 21:05:53;;;;;;;106.95;56.80;;;;;;;;;;5024988;28;20025;-47
2021/03/15 21:08:19;;;;;;;80.57;42.95;;;;;;;;;;5024831;28;20081;-48
2021/03/15 21:10:45;;;;;;;71.13;39.08;;;;;;;;;;5025143;28;20334;-49
2021/03/15 21:13:11;;;;;;;113.00;54.63;;;;;;;;;;5025049;28;20035;-51
2021/03/15 21:15:37;;;;;;;59.30;31.95;;;;;;;;;;5024273;28;20921;-49
2021/03/15 21:18:03;;;;;;;29.77;16.88;;;;;;;;;;5024982;28;20072;-51
2021/03/15 21:20:29;;;;;;;39.67;19.77;;;;;;;;;;5036628;28;20024;-46
2021/03/15 21:22:56;;;;;;;25.88;14.45;;;;;;;;;;5025501;28;20036;-46
2021/03/15 21:25:22;;;;;;;71.85;35.50;;;;;;;;;;5024771;28;20028;-47
2021/03/15 21:27:48;;;;;;;102.63;53.10;;;;;;;;;;5005747;28;20343;-46
2021/03/15 21:30:15;;;;;;;49.97;25.17;;;;;;;;;;5024439;28;20033;-48
2021/03/15 21:32:41;;;;;;;73.45;35.97;;;;;;;;;;5024319;28;20029;-49
2021/03/15 21:35:07;;;;;;;53.20;26.98;;;;;;;;;;5024304;28;20489;-47
2021/03/15 21:37:34;;;;;;;68.82;34.58;;;;;;;;;;5024019;28;20481;-48
2021/03/15 21:40:00;;;;;;;86.28;43.03;;;;;;;;;;5024912;28;20140;-49
2021/03/15 21:42:26;;;;;;;104.30;53.28;;;;;;;;;;5024623;28;20362;-47
2021/03/15 21:44:52;;;;;;;52.25;28.10;;;;;;;;;;5024394;28;20082;-49
2021/03/15 21:47:18;;;;;;;73.82;37.80;;;;;;;;;;5024443;28;20071;-48
2021/03/15 21:49:44;;;;;;;65.85;33.03;;;;;;;;;;5023681;28;20504;-47
2021/03/15 21:52:10;;;;;;;100.43;51.00;;;;;;;;;;5024275;28;20029;-49
2021/03/15 21:54:39;;;;;;;108.78;56.78;;;;;;;;;;5024156;28;20082;-48
2021/03/15 21:57:05;;;;;;;79.78;43.00;;;;;;;;;;5024132;28;20043;-46
2021/03/15 21:59:31;;;;;;;91.53;44.08;;;;;;;;;;5005031;28;20036;-47
2021/03/15 22:01:57;;;;;;;62.95;32.78;;;;;;;;;;5024235;28;20029;-47
2021/03/15 22:04:23;;;;;;;41.40;18.63;;;;;;;;;;5024075;28;20032;-49
2021/03/15 22:06:49;;;;;;;30.08;16.60;;;;;;;;;;5035750;28;20501;-47
2021/03/15 22:09:15;;;;;;;29.92;16.98;;;;;;;;;;5023751;28;20060;-47
2021/03/15 22:11:41;;;;;;;50.20;24.42;;;;;;;;;;5008727;28;20880;-45
2021/03/15 22:14:07;;;;;;;47.83;25.63;;;;;;;;;;5024124;28;20043;-48
2021/03/15 22:16:34;;;;;;;58.17;30.45;;;;;;;;;;5023766;28;20066;-47
2021/03/15 22:19:00;;;;;;;158.50;89.82;;;;;;;;;;5020701;28;20065;-46
2021/03/15 22:21:26;;;;;;;91.40;49.47;;;;;;;;;;5023850;28;21062;-46
2021/03/15 22:23:52;;;;;;;53.50;29.67;;;;;;;;;;5023452;28;20025;-47
2021/03/15 22:26:19;;;;;;;169.63;87.32;;;;;;;;;;5023790;28;20024;-46
2021/03/15 22:28:45;;;;;;;95.10;46.67;;;;;;;;;;5034944;28;20069;-48
2021/03/15 22:31:11;;;;;;;94.85;51.08;;;;;;;;;;5023547;28;20342;-47
2021/03/15 22:33:37;;;;;;;45.60;22.35;;;;;;;;;;5023791;28;20056;-45
2021/03/15 22:36:04;;;;;;;38.55;20.63;;;;;;;;;;5023556;28;20037;-48
2021/03/15 22:38:30;;;;;;;45.53;23.23;;;;;;;;;;5008053;28;20037;-46
2021/03/15 22:40:56;;;;;;;35.63;16.30;;;;;;;;;;5023136;28;20022;-46
2021/03/15 22:43:22;;;;;;;41.13;20.80;;;;;;;;;;5023637;28;20535;-47
2021/03/15 22:45:48;;;;;;;39.10;23.45;;;;;;;;;;5023620;28;20018;-49
2021/03/15 22:48:17;;;;;;;36.25;19.77;;;;;;;;;;5023344;28;20617;-44
2021/03/15 22:50:46;;;;;;;20.70;10.57;;;;;;;;;;5004118;28;21564;-46
2021/03/15 22:53:12;;;;;;;42.10;21.55;;;;;;;;;;5023427;28;20504;-46
2021/03/15 22:55:38;;;;;;;25.88;14.93;;;;;;;;;;5022963;28;20818;-46
2021/03/15 22:58:04;;;;;;;47.22;23.77;;;;;;;;;;5023371;28;20025;-45
2021/03/15 23:00:32;;;;;;;29.38;15.85;;;;;;;;;;5022927;28;20037;-48
2021/03/15 23:02:58;;;;;;;34.20;19.67;;;;;;;;;;5023797;28;20059;-44
2021/03/15 23:05:24;;;;;;;31.23;17.20;;;;;;;;;;5003255;28;20029;-43
2021/03/15 23:07:54;;;;;;;38.22;20.10;;;;;;;;;;5022960;28;20791;-44
2021/03/15 23:10:22;;;;;;;31.50;16.33;;;;;;;;;;5023131;28;20524;-46
2021/03/15 23:12:48;;;;;;;26.98;15.85;;;;;;;;;;5023043;28;20028;-45
2021/03/15 23:15:20;;;;;;;37.40;19.70;;;;;;;;;;5022981;28;20029;-46
2021/03/15 23:17:47;;;;;;;26.92;12.98;;;;;;;;;;5022946;28;20029;-46
2021/03/15 23:20:13;;;;;;;22.15;12.55;;;;;;;;;;5022853;28;20060;-47
2021/03/15 23:22:43;;;;;;;35.92;17.80;;;;;;;;;;5022788;28;20060;-45
2021/03/15 23:25:11;;;;;;;39.03;21.27;;;;;;;;;;5022875;28;20022;-45
2021/03/15 23:27:38;;;;;;;26.35;14.65;;;;;;;;;;5022995;28;20029;-46
2021/03/15 23:30:04;;;;;;;32.38;18.20;;;;;;;;;;5005777;28;20090;-46
2021/03/15 23:32:30;;;;;;;47.35;22.50;;;;;;;;;;5026803;28;21378;-47
2021/03/15 23:34:57;;;;;;;37.30;18.38;;;;;;;;;;5026839;28;20182;-47
2021/03/15 23:37:24;;;;;;;56.40;28.67;;;;;;;;;;5026547;28;20040;-45
2021/03/15 23:39:52;;;;;;;32.67;17.05;;;;;;;;;;5026774;28;20028;-46
2021/03/15 23:42:18;;;;;;;35.80;19.42;;;;;;;;;;5026730;28;20040;-45
2021/03/15 23:44:44;;;;;;;55.42;28.35;;;;;;;;;;5026370;28;20410;-47
2021/03/15 23:47:13;;;;;;;66.45;31.38;;;;;;;;;;5026894;28;20033;-46
2021/03/15 23:49:39;;;;;;;84.70;40.58;;;;;;;;;;5026643;28;20037;-46
2021/03/15 23:52:06;;;;;;;107.35;51.10;;;;;;;;;;5026938;28;20078;-45
2021/03/15 23:54:32;;;;;;;126.13;61.35;;;;;;;;;;5026696;28;20029;-45
2021/03/15 23:56:58;;;;;;;43.60;21.52;;;;;;;;;;5026317;28;20028;-45
2021/03/15 23:59:24;;;;;;;37.83;19.52;;;;;;;;;;5026169;28;20136;-47
